Time;durP1;ratioP1;P1;durP2;ratioP2;P2;SDS_P1;SDS_P2;PMS_P1;PMS_P2;Temp;Humidity;BMP_temperature;BMP_pressure;BME280_temperature;BME280_humidity;BME280_pressure;Samples;Min_cycle;Max_cycle;Signal;HPM_P1;HPM_P2
2022/07/24 00:01:38;;;;;;;4.75;3.50;;;23.20;75.00;;;;;;5035872;28;20041;-77
2022/07/24 00:04:04;;;;;;;5.47;3.75;;;23.30;75.00;;;;;;5035915;28;20024;-77
2022/07/24 00:06:30;;;;;;;4.00;3.47;;;23.30;75.10;;;;;;5035901;28;20064;-77
2022/07/24 00:08:55;;;;;;;6.03;3.40;;;23.30;75.10;;;;;;5036075;28;20105;-77
2022/07/24 00:11:21;;;;;;;4.85;3.28;;;23.30;75.10;;;;;;5035866;28;20465;-78
2022/07/24 00:13:47;;;;;;;4.15;3.75;;;23.20;75.10;;;;;;5035741;28;20061;-77
2022/07/24 00:16:12;;;;;;;4.65;4.07;;;23.20;75.40;;;;;;5035521;28;20105;-77
2022/07/24 00:18:38;;;;;;;7.45;3.72;;;23.10;75.70;;;;;;5035681;28;20033;-77
2022/07/24 00:21:04;;;;;;;5.35;3.70;;;23.10;75.90;;;;;;5035926;28;20040;-77
2022/07/24 00:23:30;;;;;;;4.50;4.10;;;23.10;75.70;;;;;;5035495;28;20021;-78
2022/07/24 00:25:56;;;;;;;5.00;3.75;;;23.10;75.90;;;;;;5035741;28;20067;-77
2022/07/24 00:28:21;;;;;;;5.05;2.95;;;23.10;75.70;;;;;;5035507;28;20156;-78
2022/07/24 00:30:47;;;;;;;4.80;3.55;;;23.10;75.80;;;;;;5035366;28;20029;-77
2022/07/24 00:33:12;;;;;;;3.67;3.15;;;23.10;76.40;;;;;;5035632;28;20021;-78
2022/07/24 00:35:38;;;;;;;3.85;3.50;;;23.10;75.70;;;;;;5035633;28;20029;-78
2022/07/24 00:38:04;;;;;;;3.75;3.35;;;23.10;75.70;;;;;;5035272;28;20507;-78
2022/07/24 00:40:30;;;;;;;6.75;4.78;;;23.20;75.80;;;;;;5035075;28;20056;-78
2022/07/24 00:42:57;;;;;;;5.18;4.60;;;23.20;75.90;;;;;;5035146;28;20033;-78
2022/07/24 00:45:24;;;;;;;4.35;3.75;;;23.10;76.00;;;;;;5035143;28;20029;-78
2022/07/24 00:47:49;;;;;;;4.18;3.75;;;23.10;76.20;;;;;;5035364;28;20072;-78
2022/07/24 00:50:15;;;;;;;4.53;3.50;;;23.10;76.30;;;;;;5035329;28;20461;-78
2022/07/24 00:52:42;;;;;;;4.43;3.97;;;23.00;76.30;;;;;;5035072;28;20029;-78
2022/07/24 00:55:08;;;;;;;6.57;3.60;;;23.00;76.30;;;;;;5034102;28;20037;-78
2022/07/24 00:57:34;;;;;;;3.13;2.42;;;23.00;76.40;;;;;;5034938;28;20079;-78
2022/07/24 01:00:00;;;;;;;3.40;3.08;;;23.10;76.40;;;;;;5034977;28;20116;-78
2022/07/24 01:02:25;;;;;;;4.13;3.20;;;23.10;76.30;;;;;;5034914;28;20476;-78
2022/07/24 01:04:51;;;;;;;5.47;4.20;;;23.10;76.30;;;;;;5034978;28;20026;-78
2022/07/24 01:07:17;;;;;;;5.78;4.40;;;23.10;76.30;;;;;;5034899;28;20072;-78
2022/07/24 01:09:43;;;;;;;6.22;4.50;;;23.10;76.30;;;;;;5034746;28;20531;-78
2022/07/24 01:12:09;;;;;;;5.43;3.55;;;23.10;76.30;;;;;;5035045;28;20041;-78
2022/07/24 01:14:35;;;;;;;5.63;3.83;;;23.10;76.40;;;;;;5034549;28;20030;-78
2022/07/24 01:17:01;;;;;;;5.05;3.75;;;23.10;76.40;;;;;;5034632;28;20030;-77
2022/07/24 01:19:26;;;;;;;4.65;4.20;;;23.10;77.00;;;;;;5034735;28;20056;-78
2022/07/24 01:21:53;;;;;;;5.22;4.22;;;23.10;76.30;;;;;;5034358;28;20039;-78
2022/07/24 01:24:20;;;;;;;6.57;3.75;;;23.10;76.40;;;;;;5034464;28;20398;-78
2022/07/24 01:26:47;;;;;;;6.75;4.30;;;23.10;76.40;;;;;;5034384;28;20381;-78
2022/07/24 01:29:14;;;;;;;6.35;5.53;;;23.10;76.50;;;;;;5034188;28;20018;-78
2022/07/24 01:31:40;;;;;;;6.53;4.97;;;23.10;76.60;;;;;;5034514;28;20419;-78
2022/07/24 01:34:06;;;;;;;7.82;4.60;;;23.00;76.70;;;;;;5034593;28;20018;-78
2022/07/24 01:36:32;;;;;;;6.72;4.25;;;23.00;77.40;;;;;;5034286;28;20036;-78
2022/07/24 01:38:58;;;;;;;5.72;4.70;;;23.00;76.90;;;;;;5034206;28;20029;-78
2022/07/24 01:41:23;;;;;;;6.03;4.78;;;23.00;76.80;;;;;;5033922;28;20034;-78
2022/07/24 01:43:49;;;;;;;5.60;5.05;;;23.00;76.90;;;;;;5033727;28;20050;-78
2022/07/24 01:46:14;;;;;;;5.70;4.40;;;23.00;76.90;;;;;;5034287;28;20021;-78
2022/07/24 01:48:41;;;;;;;4.63;4.20;;;22.90;77.00;;;;;;5034306;28;20030;-78
2022/07/24 01:51:08;;;;;;;4.90;3.65;;;22.90;77.00;;;;;;5034152;28;20056;-78
2022/07/24 01:53:33;;;;;;;4.45;4.03;;;22.90;77.00;;;;;;5033992;28;20022;-78
2022/07/24 01:55:59;;;;;;;5.85;4.60;;;22.90;77.00;;;;;;5033938;28;20028;-78
2022/07/24 01:58:25;;;;;;;4.82;4.28;;;22.90;77.00;;;;;;5033783;28;20385;-78
2022/07/24 02:00:50;;;;;;;7.13;5.78;;;23.00;77.00;;;;;;5033966;28;20495;-78
2022/07/24 02:03:16;;;;;;;4.93;4.43;;;22.90;77.00;;;;;;5033679;28;20049;-78
2022/07/24 02:05:42;;;;;;;4.45;4.03;;;22.90;77.00;;;;;;5033813;28;20025;-78
2022/07/24 02:08:07;;;;;;;3.85;3.53;;;22.90;77.10;;;;;;5033310;28;20346;-78
2022/07/24 02:10:33;;;;;;;4.82;4.22;;;22.90;77.00;;;;;;5033392;28;20025;-78
2022/07/24 02:12:59;;;;;;;6.28;4.47;;;22.90;76.90;;;;;;5033568;28;20124;-78
2022/07/24 02:15:25;;;;;;;5.47;4.78;;;22.90;76.90;;;;;;5033821;28;20033;-78
2022/07/24 02:17:54;;;;;;;6.13;5.20;;;22.90;77.00;;;;;;5033714;28;20056;-78
2022/07/24 02:20:20;;;;;;;8.52;5.80;;;22.90;76.90;;;;;;5033600;28;20038;-78
2022/07/24 02:22:45;;;;;;;5.75;4.97;;;22.80;76.90;;;;;;5033403;28;20408;-78
2022/07/24 02:25:12;;;;;;;6.40;5.35;;;22.80;77.10;;;;;;5033179;28;20033;-78
2022/07/24 02:27:38;;;;;;;7.22;5.78;;;22.70;77.40;;;;;;5033395;28;20026;-78
2022/07/24 02:30:09;;;;;;;5.68;5.07;;;22.60;77.60;;;;;;5033611;28;20021;-77
2022/07/24 02:32:35;;;;;;;7.68;5.95;;;22.50;77.80;;;;;;5033379;28;20029;-78
2022/07/24 02:35:00;;;;;;;7.85;5.90;;;22.50;77.90;;;;;;5033135;28;20026;-77
2022/07/24 02:37:26;;;;;;;8.65;5.95;;;22.40;78.20;;;;;;5033382;28;20027;-77
2022/07/24 02:39:51;;;;;;;3.88;3.47;;;22.40;78.10;;;;;;5033409;28;20112;-78
2022/07/24 02:42:17;;;;;;;8.73;5.38;;;22.40;78.10;;;;;;5033485;28;20021;-77
2022/07/24 02:44:43;;;;;;;5.47;4.90;;;22.40;78.10;;;;;;5033014;28;20175;-77
2022/07/24 02:47:08;;;;;;;6.18;4.53;;;22.50;78.10;;;;;;5033262;28;20494;-78
2022/07/24 02:49:35;;;;;;;7.28;5.10;;;22.50;77.90;;;;;;5033288;28;20045;-78
2022/07/24 02:52:01;;;;;;;8.38;5.63;;;22.50;77.70;;;;;;5033128;28;20057;-78
2022/07/24 02:54:27;;;;;;;5.72;4.05;;;22.50;77.60;;;;;;5033300;28;20072;-77
2022/07/24 02:56:53;;;;;;;5.60;4.45;;;22.50;77.70;;;;;;5033090;28;20500;-77
2022/07/24 02:59:18;;;;;;;7.57;4.82;;;22.50;77.60;;;;;;5032995;28;20392;-78
2022/07/24 03:01:44;;;;;;;7.82;5.95;;;22.50;77.50;;;;;;5033250;28;20038;-78
2022/07/24 03:04:09;;;;;;;7.68;6.85;;;22.50;77.60;;;;;;5033260;28;20101;-77
2022/07/24 03:06:35;;;;;;;8.48;6.43;;;22.50;77.80;;;;;;5033068;28;20523;-77
2022/07/24 03:09:01;;;;;;;7.97;6.15;;;22.30;78.10;;;;;;5032814;28;20040;-77
2022/07/24 03:11:27;;;;;;;9.75;6.40;;;22.20;78.40;;;;;;5033148;28;20080;-78
2022/07/24 03:13:52;;;;;;;7.05;6.35;;;22.20;78.50;;;;;;5033135;28;20014;-77
2022/07/24 03:16:18;;;;;;;6.88;6.18;;;22.20;78.70;;;;;;5033198;28;20033;-78
2022/07/24 03:18:45;;;;;;;8.52;6.30;;;22.10;78.70;;;;;;5033661;28;20525;-78
2022/07/24 03:21:13;;;;;;;9.23;5.95;;;22.20;78.90;;;;;;5036693;28;20041;-77
2022/07/24 03:23:38;;;;;;;7.85;6.40;;;22.20;78.70;;;;;;5036934;28;20025;-78
2022/07/24 03:26:04;;;;;;;8.90;7.05;;;22.30;78.70;;;;;;5036680;28;20026;-77
2022/07/24 03:28:30;;;;;;;7.03;5.72;;;22.30;78.80;;;;;;5036908;28;20025;-78
2022/07/24 03:30:56;;;;;;;11.75;6.72;;;22.20;78.80;;;;;;5036868;28;20493;-78
2022/07/24 03:33:21;;;;;;;9.43;5.18;;;22.20;78.80;;;;;;5036438;28;20116;-77
2022/07/24 03:35:47;;;;;;;5.35;4.85;;;22.20;78.90;;;;;;5036820;28;20018;-77
2022/07/24 03:38:12;;;;;;;7.53;5.30;;;22.30;79.00;;;;;;5036460;28;20416;-77
2022/07/24 03:40:38;;;;;;;7.40;5.07;;;22.30;79.00;;;;;;5036722;28;20108;-78
2022/07/24 03:43:03;;;;;;;7.30;5.63;;;22.30;79.00;;;;;;5036491;28;20477;-78
2022/07/24 03:45:29;;;;;;;6.30;5.70;;;22.30;78.90;;;;;;5036265;28;20033;-78
2022/07/24 03:47:55;;;;;;;6.72;5.93;;;22.30;79.00;;;;;;5036581;28;20465;-78
2022/07/24 03:50:20;;;;;;;7.00;6.30;;;22.30;79.10;;;;;;5036261;28;20026;-78
2022/07/24 03:52:46;;;;;;;7.35;5.50;;;22.30;79.10;;;;;;5036123;28;20036;-77
2022/07/24 03:55:11;;;;;;;8.13;6.18;;;22.30;79.20;;;;;;5036509;28;20025;-78
2022/07/24 03:57:37;;;;;;;7.75;4.97;;;22.30;79.20;;;;;;5036258;28;20030;-77
2022/07/24 04:00:08;;;;;;;7.63;5.82;;;22.30;79.30;;;;;;5036017;28;20413;-77
2022/07/24 04:02:34;;;;;;;6.97;5.88;;;22.30;79.30;;;;;;5036379;28;20100;-77
2022/07/24 04:04:59;;;;;;;7.57;6.78;;;22.30;79.40;;;;;;5036322;28;20104;-77
2022/07/24 04:07:25;;;;;;;7.68;5.05;;;22.30;79.60;;;;;;5035817;28;20029;-78
2022/07/24 04:09:50;;;;;;;7.93;5.95;;;22.30;79.70;;;;;;5036257;28;20017;-78
2022/07/24 04:12:16;;;;;;;6.78;5.50;;;22.30;79.90;;;;;;5035705;28;20419;-78
2022/07/24 04:14:41;;;;;;;7.75;6.05;;;22.30;80.00;;;;;;5035996;28;20076;-78
2022/07/24 04:17:08;;;;;;;8.05;7.03;;;22.30;80.20;;;;;;5036088;28;20425;-78
2022/07/24 04:19:34;;;;;;;8.68;6.85;;;22.30;80.20;;;;;;5035743;28;20500;-78
2022/07/24 04:22:00;;;;;;;6.97;6.28;;;22.20;80.20;;;;;;5035514;28;20038;-78
2022/07/24 04:24:25;;;;;;;7.88;6.00;;;22.20;80.20;;;;;;5035385;28;20017;-78
2022/07/24 04:26:51;;;;;;;6.82;6.15;;;22.30;80.20;;;;;;5035786;28;20028;-78
2022/07/24 04:29:17;;;;;;;8.55;7.75;;;22.30;80.10;;;;;;5035298;28;20026;-78
2022/07/24 04:31:42;;;;;;;7.47;6.53;;;22.30;79.90;;;;;;5035836;28;20156;-77
2022/07/24 04:34:08;;;;;;;7.43;6.70;;;22.30;80.00;;;;;;5035847;28;20044;-77
2022/07/24 04:36:33;;;;;;;10.63;7.00;;;22.20;80.10;;;;;;5035136;28;20159;-77
2022/07/24 04:38:59;;;;;;;9.30;7.05;;;22.20;80.20;;;;;;5035575;28;20033;-77
2022/07/24 04:41:25;;;;;;;10.18;7.80;;;22.20;80.40;;;;;;5035259;28;20419;-77
2022/07/24 04:43:50;;;;;;;12.68;9.88;;;22.20;80.50;;;;;;5035290;28;20112;-78
2022/07/24 04:46:17;;;;;;;12.30;9.48;;;22.20;80.60;;;;;;5035212;28;20025;-78
2022/07/24 04:48:42;;;;;;;12.25;9.30;;;22.10;80.60;;;;;;5035209;28;20121;-78
2022/07/24 04:51:08;;;;;;;10.02;8.32;;;22.00;80.90;;;;;;5035158;28;20520;-78
2022/07/24 04:53:34;;;;;;;12.10;9.10;;;21.90;80.90;;;;;;5035223;28;20033;-76
2022/07/24 04:56:00;;;;;;;13.20;9.95;;;21.90;81.10;;;;;;5035069;28;20031;-76
2022/07/24 04:58:26;;;;;;;12.20;10.48;;;21.90;81.20;;;;;;5035135;28;20022;-76
2022/07/24 05:00:52;;;;;;;10.93;9.70;;;21.80;81.40;;;;;;5034951;28;20038;-77
2022/07/24 05:03:18;;;;;;;12.15;10.30;;;21.80;81.90;;;;;;5034673;28;20080;-77
2022/07/24 05:05:44;;;;;;;10.15;9.15;;;21.70;82.10;;;;;;5034706;28;20103;-77
2022/07/24 05:08:09;;;;;;;11.40;10.20;;;21.70;82.20;;;;;;5034933;28;20075;-77
2022/07/24 05:10:35;;;;;;;10.75;9.27;;;21.70;82.50;;;;;;5034667;28;20025;-77
2022/07/24 05:13:00;;;;;;;9.38;8.48;;;21.70;82.70;;;;;;5034609;28;20056;-77
2022/07/24 05:15:26;;;;;;;12.38;10.68;;;21.70;82.70;;;;;;5034285;28;20036;-77
2022/07/24 05:17:52;;;;;;;12.88;10.32;;;21.70;82.60;;;;;;5034573;28;20033;-77
2022/07/24 05:20:17;;;;;;;12.38;10.30;;;21.70;82.60;;;;;;5034311;28;20026;-77
2022/07/24 05:22:43;;;;;;;11.88;10.73;;;21.70;82.80;;;;;;5034506;28;20034;-77
2022/07/24 05:25:09;;;;;;;14.30;10.63;;;21.70;82.80;;;;;;5034362;28;20378;-77
2022/07/24 05:27:34;;;;;;;14.90;12.07;;;21.70;82.90;;;;;;5034475;28;20025;-76
2022/07/24 05:30:01;;;;;;;13.73;11.68;;;21.70;83.10;;;;;;5034205;28;20496;-77
2022/07/24 05:32:26;;;;;;;14.45;11.38;;;21.70;83.20;;;;;;5034576;28;20029;-77
2022/07/24 05:34:52;;;;;;;15.43;12.13;;;21.70;83.40;;;;;;5034386;28;20419;-78
2022/07/24 05:37:17;;;;;;;15.43;11.93;;;21.70;83.50;;;;;;5034127;28;20354;-77
2022/07/24 05:39:43;;;;;;;13.68;12.10;;;21.70;83.80;;;;;;5034105;28;20025;-77
2022/07/24 05:42:09;;;;;;;11.57;10.15;;;21.80;84.10;;;;;;5033509;28;20060;-77
2022/07/24 05:44:34;;;;;;;12.90;11.60;;;21.80;84.20;;;;;;5033840;28;20045;-77
2022/07/24 05:47:00;;;;;;;15.82;14.13;;;21.80;84.80;;;;;;5034078;28;20026;-77
2022/07/24 05:49:25;;;;;;;16.38;13.18;;;21.90;84.40;;;;;;5034066;28;20056;-77
2022/07/24 05:51:51;;;;;;;18.08;14.40;;;21.90;84.60;;;;;;5033725;28;20354;-77
2022/07/24 05:54:17;;;;;;;17.25;14.13;;;21.90;84.80;;;;;;5034034;28;20044;-78
2022/07/24 05:56:42;;;;;;;16.15;14.30;;;21.90;85.10;;;;;;5033923;28;20021;-77
2022/07/24 05:59:08;;;;;;;19.88;15.75;;;21.90;85.70;;;;;;5034198;28;20068;-78
2022/07/24 06:01:34;;;;;;;18.98;16.40;;;21.90;85.80;;;;;;5033770;28;20132;-78
2022/07/24 06:03:59;;;;;;;18.20;16.13;;;21.90;86.00;;;;;;5033527;28;20049;-77
2022/07/24 06:06:25;;;;;;;19.23;15.50;;;21.90;86.20;;;;;;5034080;28;20032;-77
2022/07/24 06:08:50;;;;;;;19.02;14.70;;;21.90;86.20;;;;;;5034042;28;20376;-78
2022/07/24 06:11:17;;;;;;;22.00;16.10;;;21.90;86.40;;;;;;5033751;28;20086;-78
2022/07/24 06:13:43;;;;;;;21.15;16.23;;;21.90;86.80;;;;;;5033755;28;20025;-77
2022/07/24 06:16:09;;;;;;;25.27;17.23;;;21.90;87.10;;;;;;5033544;28;20035;-77
2022/07/24 06:18:34;;;;;;;22.15;17.73;;;21.90;87.20;;;;;;5033623;28;20021;-78
2022/07/24 06:21:00;;;;;;;17.48;15.48;;;21.90;87.70;;;;;;5033585;28;20033;-78
2022/07/24 06:23:25;;;;;;;22.13;16.05;;;22.00;88.10;;;;;;5033781;28;20108;-77
2022/07/24 06:25:51;;;;;;;20.00;15.95;;;21.90;87.80;;;;;;5033581;28;20053;-78
2022/07/24 06:28:17;;;;;;;20.95;16.27;;;21.90;87.40;;;;;;5033198;28;20018;-77
2022/07/24 06:30:42;;;;;;;19.40;14.80;;;21.90;87.90;;;;;;5033309;28;20051;-77
2022/07/24 06:33:08;;;;;;;18.00;13.65;;;21.90;87.80;;;;;;5033582;28;20033;-77
2022/07/24 06:35:33;;;;;;;15.50;12.90;;;22.00;87.20;;;;;;5033668;28;20021;-78
2022/07/24 06:38:02;;;;;;;16.90;12.93;;;22.10;87.20;;;;;;5033301;28;20103;-77
2022/07/24 06:40:28;;;;;;;14.32;12.48;;;22.10;87.10;;;;;;5033552;28;20064;-78
2022/07/24 06:42:54;;;;;;;14.63;12.60;;;22.30;87.40;;;;;;5033328;28;20104;-78
2022/07/24 06:45:20;;;;;;;18.85;13.25;;;22.30;87.40;;;;;;5033233;28;20104;-77
2022/07/24 06:47:45;;;;;;;15.90;12.45;;;22.40;86.90;;;;;;5033096;28;20032;-77
2022/07/24 06:50:12;;;;;;;15.57;12.35;;;22.50;86.10;;;;;;5033383;28;20090;-77
2022/07/24 06:52:38;;;;;;;14.00;12.10;;;22.50;85.70;;;;;;5033696;28;20489;-77
2022/07/24 06:55:05;;;;;;;17.30;12.52;;;22.60;85.70;;;;;;5037261;28;20036;-77
2022/07/24 06:57:30;;;;;;;15.27;12.02;;;22.70;85.40;;;;;;5037402;28;20032;-77
2022/07/24 06:59:56;;;;;;;14.18;10.60;;;22.70;85.10;;;;;;5037423;28;20096;-78
2022/07/24 07:02:22;;;;;;;14.00;11.23;;;22.70;84.50;;;;;;5036792;28;20148;-77
2022/07/24 07:04:48;;;;;;;12.95;10.02;;;22.80;84.40;;;;;;5037152;28;20580;-77
2022/07/24 07:07:15;;;;;;;13.50;10.70;;;22.80;84.40;;;;;;5037257;28;20033;-75
2022/07/24 07:09:44;;;;;;;11.57;9.40;;;22.90;84.00;;;;;;5037217;28;20029;-77
2022/07/24 07:12:10;;;;;;;10.73;8.43;;;23.00;84.50;;;;;;5036975;28;20028;-77
2022/07/24 07:14:35;;;;;;;10.02;7.55;;;23.00;81.80;;;;;;5037176;28;20029;-76
2022/07/24 07:17:01;;;;;;;11.00;7.90;;;23.00;81.00;;;;;;5036847;28;20024;-77
2022/07/24 07:19:27;;;;;;;10.15;8.10;;;23.10;81.20;;;;;;5037003;28;20071;-78
2022/07/24 07:21:52;;;;;;;8.05;7.15;;;23.10;81.30;;;;;;5036823;28;20053;-78
2022/07/24 07:24:18;;;;;;;8.48;6.85;;;23.10;80.70;;;;;;5036694;28;20625;-78
2022/07/24 07:26:44;;;;;;;9.35;6.97;;;23.20;80.80;;;;;;5036720;28;20033;-78
2022/07/24 07:29:09;;;;;;;7.40;5.57;;;23.40;80.30;;;;;;5036589;28;20048;-78
2022/07/24 07:31:35;;;;;;;6.30;5.30;;;23.40;78.60;;;;;;5036570;28;20036;-78
2022/07/24 07:34:01;;;;;;;5.68;4.93;;;23.50;77.50;;;;;;5036504;28;20040;-78
2022/07/24 07:36:26;;;;;;;5.88;4.50;;;23.50;76.40;;;;;;5036811;28;20032;-78
2022/07/24 07:38:52;;;;;;;7.47;5.00;;;23.50;75.50;;;;;;5036438;28;20457;-76
2022/07/24 07:41:21;;;;;;;9.48;5.95;;;23.60;75.70;;;;;;5036596;28;20048;-77
2022/07/24 07:43:49;;;;;;;5.47;4.30;;;23.60;75.30;;;;;;5036358;28;20042;-78
2022/07/24 07:46:15;;;;;;;7.78;4.45;;;23.70;75.50;;;;;;5036471;28;20030;-78
2022/07/24 07:48:41;;;;;;;5.78;4.45;;;23.70;74.30;;;;;;5036552;28;20443;-78
2022/07/24 07:51:07;;;;;;;9.10;4.15;;;23.70;74.50;;;;;;5036273;28;20473;-77
2022/07/24 07:53:33;;;;;;;4.95;3.92;;;23.90;74.10;;;;;;5035934;28;20044;-78
2022/07/24 07:56:01;;;;;;;4.30;3.08;;;24.00;74.00;;;;;;5036185;28;20033;-78
2022/07/24 07:58:27;;;;;;;3.25;2.75;;;24.10;73.70;;;;;;5036211;28;20439;-78
2022/07/24 08:00:53;;;;;;;4.07;2.90;;;24.20;73.10;;;;;;5036216;28;20069;-78
2022/07/24 08:03:19;;;;;;;3.95;3.13;;;24.30;72.80;;;;;;5036341;28;20032;-78
2022/07/24 08:05:45;;;;;;;2.97;2.67;;;24.40;72.10;;;;;;5035366;28;20032;-78
2022/07/24 08:08:11;;;;;;;4.10;2.17;;;24.50;71.40;;;;;;5036123;28;20025;-79
2022/07/24 08:10:36;;;;;;;4.20;2.38;;;24.60;70.90;;;;;;5036022;28;20056;-78
2022/07/24 08:13:03;;;;;;;3.95;2.15;;;24.70;70.80;;;;;;5035711;28;20028;-78
2022/07/24 08:15:29;;;;;;;3.95;2.33;;;24.80;70.60;;;;;;5035985;28;20029;-78
2022/07/24 08:17:56;;;;;;;3.63;2.40;;;24.90;70.20;;;;;;5035885;28;20022;-78
2022/07/24 08:20:23;;;;;;;4.43;2.13;;;25.00;69.10;;;;;;5035958;28;20117;-78
2022/07/24 08:22:49;;;;;;;4.57;2.45;;;25.10;68.90;;;;;;5035534;28;20547;-78
2022/07/24 08:25:16;;;;;;;1.80;1.70;;;25.10;67.80;;;;;;5035653;28;20049;-76
2022/07/24 08:27:41;;;;;;;5.05;3.15;;;25.00;68.00;;;;;;5035871;28;20028;-77
2022/07/24 08:30:08;;;;;;;7.50;1.83;;;25.10;67.10;;;;;;5035175;28;20025;-77
2022/07/24 08:32:34;;;;;;;4.20;2.20;;;25.00;67.20;;;;;;5035466;28;20469;-78
2022/07/24 08:35:00;;;;;;;3.50;2.10;;;25.10;67.50;;;;;;5035520;28;20040;-77
2022/07/24 08:37:25;;;;;;;3.78;2.17;;;25.10;67.20;;;;;;5035263;28;20468;-78
2022/07/24 08:39:51;;;;;;;3.55;2.22;;;25.10;66.90;;;;;;5035351;28;20069;-78
2022/07/24 08:42:17;;;;;;;3.25;2.47;;;25.20;67.50;;;;;;5035276;28;20021;-77
2022/07/24 08:44:42;;;;;;;5.25;2.35;;;25.20;67.30;;;;;;5035011;28;20051;-78
2022/07/24 08:47:08;;;;;;;3.08;2.28;;;25.30;67.30;;;;;;5035168;28;20492;-78
2022/07/24 08:49:35;;;;;;;4.40;2.00;;;25.40;67.20;;;;;;5035089;28;20485;-78
2022/07/24 08:52:04;;;;;;;2.95;2.38;;;25.50;67.30;;;;;;5035325;28;20108;-78
2022/07/24 08:54:32;;;;;;;3.72;2.50;;;25.60;66.80;;;;;;5035238;28;20465;-78
2022/07/24 08:56:58;;;;;;;3.97;2.80;;;25.60;66.70;;;;;;5035059;28;20026;-77
2022/07/24 08:59:24;;;;;;;4.15;2.58;;;25.70;66.70;;;;;;5034871;28;20381;-77
2022/07/24 09:01:50;;;;;;;2.20;2.00;;;25.80;66.60;;;;;;5034996;28;20105;-77
2022/07/24 09:04:34;;;;;;;3.80;2.20;;;25.80;66.30;;;;;;5034620;28;20021;-78
2022/07/24 09:07:01;;;;;;;3.40;1.80;;;26.00;65.30;;;;;;5034608;28;20029;-78
2022/07/24 09:09:26;;;;;;;3.90;2.67;;;26.00;65.00;;;;;;5034632;28;20492;-78
2022/07/24 09:12:14;;;;;;;3.78;1.80;;;26.10;64.90;;;;;;5035016;28;20108;-78
2022/07/24 09:14:43;;;;;;;2.03;1.58;;;26.20;64.60;;;;;;5035023;28;20029;-78
2022/07/24 09:17:11;;;;;;;2.22;1.52;;;26.30;64.10;;;;;;5033357;28;20030;-78
2022/07/24 09:19:50;;;;;;;3.03;1.65;;;26.30;63.60;;;;;;5034961;28;20029;-78
2022/07/24 09:22:31;;;;;;;2.03;1.30;;;26.40;63.70;;;;;;5034269;28;20510;-78
2022/07/24 09:25:13;;;;;;;2.15;1.38;;;26.50;63.50;;;;;;5034814;28;20052;-78
2022/07/24 09:27:41;;;;;;;;;;;26.50;62.80;;;;;;5035141;28;20372;-78
2022/07/24 09:30:08;;;;;;;2.67;1.35;;;26.50;62.70;;;;;;5034224;28;19941;-78
2022/07/24 09:32:34;;;;;;;4.10;1.80;;;26.60;63.50;;;;;;5034237;28;20021;-78
2022/07/24 09:34:59;;;;;;;3.55;1.45;;;26.50;63.10;;;;;;5034540;28;20043;-77
2022/07/24 09:37:29;;;;;;;2.45;1.50;;;26.60;63.30;;;;;;5034182;28;20108;-77
2022/07/24 09:40:06;;;;;;;2.85;1.50;;;26.60;62.30;;;;;;5034396;28;20029;-78
2022/07/24 09:42:38;;;;;;;4.53;1.40;;;26.60;63.00;;;;;;5034069;28;20021;-77
2022/07/24 09:45:07;;;;;;;1.38;1.15;;;26.60;62.90;;;;;;5033542;28;20750;-77
2022/07/24 09:47:34;;;;;;;1.58;1.17;;;26.60;63.10;;;;;;5034253;28;20034;-77
2022/07/24 09:50:16;;;;;;;1.70;1.38;;;26.70;62.60;;;;;;5033703;28;20075;-78
2022/07/24 09:52:43;;;;;;;1.90;1.70;;;26.80;63.10;;;;;;5034104;28;20029;-77
2022/07/24 09:55:23;;;;;;;2.03;1.40;;;26.90;62.80;;;;;;5034139;28;20037;-77
2022/07/24 09:57:49;;;;;;;2.28;1.60;;;27.00;62.40;;;;;;5034090;28;20197;-77
2022/07/24 10:00:15;;;;;;;1.73;1.42;;;27.10;62.20;;;;;;5033639;28;20427;-77
2022/07/24 10:02:44;;;;;;;2.30;1.80;;;27.10;62.30;;;;;;5033875;28;20025;-77
2022/07/24 10:05:12;;;;;;;1.85;1.23;;;27.20;62.70;;;;;;5033995;28;20111;-77
2022/07/24 10:07:39;;;;;;;2.20;1.52;;;27.40;63.40;;;;;;5033581;28;20045;-77
2022/07/24 10:10:05;;;;;;;2.33;1.48;;;27.60;62.60;;;;;;5033668;28;20029;-77
2022/07/24 10:12:32;;;;;;;2.45;1.60;;;27.80;62.60;;;;;;5033914;28;20100;-77
2022/07/24 10:14:59;;;;;;;1.67;1.30;;;27.90;61.90;;;;;;5033506;28;20029;-78
2022/07/24 10:17:34;;;;;;;2.00;1.70;;;27.90;62.10;;;;;;5033121;28;20044;-78
2022/07/24 10:20:03;;;;;;;2.08;1.52;;;28.00;61.00;;;;;;5033428;28;20036;-77
2022/07/24 10:22:43;;;;;;;3.80;1.15;;;28.00;60.90;;;;;;5033084;28;20033;-78
2022/07/24 10:25:15;;;;;;;1.80;1.38;;;28.10;61.20;;;;;;5033411;28;20036;-78
2022/07/24 10:27:42;;;;;;;;;;;28.20;60.60;;;;;;5033560;28;20436;-78
2022/07/24 10:30:09;;;;;;;1.52;1.40;;;28.30;61.40;;;;;;5033470;28;19909;-78
2022/07/24 10:32:36;;;;;;;2.25;1.30;;;28.30;60.90;;;;;;5033081;28;20427;-78
2022/07/24 10:35:02;;;;;;;1.45;1.00;;;28.40;60.70;;;;;;5033519;28;20064;-78
2022/07/24 10:37:36;;;;;;;2.13;1.77;;;28.60;59.70;;;;;;5033282;28;20048;-78
2022/07/24 10:40:27;;;;;;;3.08;1.00;;;28.60;58.80;;;;;;5033505;28;20429;-78
2022/07/24 10:43:05;;;;;;;1.67;1.10;;;28.60;58.40;;;;;;5032891;28;20026;-77
2022/07/24 10:45:38;;;;;;;2.20;1.38;;;28.70;58.10;;;;;;5033054;28;20071;-77
2022/07/24 10:48:28;;;;;;;2.40;1.27;;;28.70;57.50;;;;;;5033525;28;20034;-77
2022/07/24 10:51:13;;;;;;;2.20;1.10;;;28.50;57.80;;;;;;5033084;28;20017;-78
2022/07/24 10:53:39;;;;;;;2.05;1.02;;;28.60;58.60;;;;;;5032962;28;20033;-77
2022/07/24 10:56:34;;;;;;;4.20;1.30;;;28.60;59.10;;;;;;5032835;28;20025;-78
2022/07/24 10:59:07;;;;;;;3.70;1.08;;;28.80;58.60;;;;;;5023874;28;20048;-77
2022/07/24 11:01:47;;;;;;;2.17;1.40;;;28.90;58.40;;;;;;5032895;28;20534;-77
2022/07/24 11:04:18;;;;;;;1.70;1.17;;;29.00;58.40;;;;;;5032945;28;20526;-78
2022/07/24 11:07:05;;;;;;;1.88;1.20;;;29.00;57.90;;;;;;5033037;28;20444;-77
2022/07/24 11:09:51;;;;;;;1.20;1.10;;;29.10;57.90;;;;;;5033074;28;20033;-77
2022/07/24 11:12:26;;;;;;;2.25;1.20;;;29.20;57.20;;;;;;5032216;28;20333;-77
2022/07/24 11:14:52;;;;;;;2.58;1.05;;;29.30;57.20;;;;;;5032860;28;20022;-77
2022/07/24 11:17:37;;;;;;;1.95;0.90;;;29.40;57.20;;;;;;5032713;28;20127;-77
2022/07/24 11:20:05;;;;;;;1.85;1.50;;;29.50;56.90;;;;;;5032924;28;20045;-78
2022/07/24 11:22:43;;;;;;;3.65;1.30;;;29.60;56.20;;;;;;5032545;28;20036;-78
2022/07/24 11:25:18;;;;;;;1.48;1.20;;;29.50;56.40;;;;;;5032838;28;20497;-78
2022/07/24 11:27:52;;;;;;;2.72;1.00;;;29.60;56.30;;;;;;5033054;28;20041;-78
2022/07/24 11:30:20;;;;;;;1.40;1.20;;;29.60;56.40;;;;;;5032902;28;20022;-78
2022/07/24 11:32:46;;;;;;;1.27;1.10;;;29.60;56.10;;;;;;5032654;28;20025;-78
2022/07/24 11:35:12;;;;;;;1.83;1.20;;;29.60;55.10;;;;;;5032430;28;20033;-78
2022/07/24 11:37:40;;;;;;;2.90;1.15;;;29.50;55.80;;;;;;5032674;28;20100;-78
2022/07/24 11:40:07;;;;;;;1.15;1.00;;;29.60;56.50;;;;;;5034124;28;20036;-79
2022/07/24 11:42:34;;;;;;;1.75;1.23;;;29.60;56.20;;;;;;5036228;28;20029;-78
2022/07/24 11:45:00;;;;;;;2.00;1.48;;;29.70;55.80;;;;;;5036169;28;20053;-78
2022/07/24 11:47:27;;;;;;;3.42;1.35;;;29.70;55.70;;;;;;5036255;28;20029;-78
2022/07/24 11:50:05;;;;;;;1.55;1.02;;;29.70;56.60;;;;;;5036008;28;20034;-78
2022/07/24 11:52:34;;;;;;;1.90;1.05;;;29.70;56.10;;;;;;5036376;28;20160;-78
2022/07/24 11:55:13;;;;;;;1.55;0.90;;;29.80;55.90;;;;;;5036034;28;20021;-78
2022/07/24 11:57:41;;;;;;;2.72;1.05;;;29.80;55.60;;;;;;5034409;28;20025;-78
2022/07/24 12:00:12;;;;;;;1.20;1.10;;;29.80;55.50;;;;;;5034372;28;20034;-79
2022/07/24 12:02:51;;;;;;;2.67;1.00;;;29.90;55.60;;;;;;5035909;28;20032;-77
2022/07/24 12:05:28;;;;;;;3.40;1.17;;;30.00;57.30;;;;;;5035162;28;20091;-77
2022/07/24 12:07:59;;;;;;;1.83;1.25;;;30.20;56.00;;;;;;5036114;28;20111;-78
2022/07/24 12:10:26;;;;;;;1.75;1.17;;;30.20;55.20;;;;;;5035896;28;20049;-78
2022/07/24 12:12:53;;;;;;;2.35;1.38;;;30.20;55.80;;;;;;5035636;28;20104;-78
2022/07/24 12:15:20;;;;;;;2.47;1.35;;;30.20;55.20;;;;;;5035986;28;20044;-78
2022/07/24 12:18:06;;;;;;;1.90;0.90;;;30.20;55.30;;;;;;5035678;28;20025;-78
2022/07/24 12:20:35;;;;;;;3.38;1.45;;;30.20;54.70;;;;;;5035571;28;20044;-76
2022/07/24 12:23:05;;;;;;;1.67;0.90;;;30.20;54.50;;;;;;5035265;28;20051;-76
2022/07/24 12:25:31;;;;;;;1.20;1.00;;;30.10;54.70;;;;;;5035297;28;20032;-76
2022/07/24 12:28:08;;;;;;;1.92;1.10;;;30.20;55.30;;;;;;5035510;28;20025;-76
2022/07/24 12:30:40;;;;;;;2.83;1.00;;;30.30;55.20;;;;;;5035664;28;20029;-76
2022/07/24 12:33:08;;;;;;;1.67;1.02;;;30.30;55.40;;;;;;5035101;28;20030;-76
2022/07/24 12:35:56;;;;;;;1.35;1.00;;;30.30;54.90;;;;;;5035247;28;20030;-76
2022/07/24 12:38:35;;;;;;;1.63;1.10;;;30.30;54.60;;;;;;5028662;28;20124;-76
2022/07/24 12:41:13;;;;;;;2.20;1.20;;;30.40;55.00;;;;;;5035501;28;20045;-76
2022/07/24 12:43:52;;;;;;;1.80;1.15;;;30.50;54.80;;;;;;5034854;28;20556;-77
2022/07/24 12:46:20;;;;;;;1.33;0.98;;;30.50;54.70;;;;;;5034851;28;20436;-77